Ashton, Missouri
Current Conditions -  °F | °C
As of 2:15 AM on Monday 24 Nov 2014 (Local Time) from KEOK Reporting Station
Light Rain Light Rain  
Wind Chill: -3°   Ceiling: 1000
Heat Index:   Visibility: 2.5mi
Dew Point:   Wind: 20mph
Humidity: 93%   Direction: 310°NW
Pressure: 29.27"   Gusts: 32mph
Location:  40.513°N, 91.8882°W
Report Text: KEOK 240815Z AUTO 31017G28KT 2 1/2SM -RA BKN010 OVC013 03/02 A2927 RMK AO2
Loading
Personal Weather Stations






























Interactive Weather Map New forecast layout! Learn more

10-Day Weather Forecast

Advertisements
Track Severe Weather on mobile